Time;durP1;ratioP1;P1;durP2;ratioP2;P2;SDS_P1;SDS_P2;PMS_P1;PMS_P2;Temp;Humidity;BMP_temperature;BMP_pressure;BME280_temperature;BME280_humidity;BME280_pressure;Samples;Min_cycle;Max_cycle;Signal;HPM_P1;HPM_P2
2022/07/15 00:00:32;;;;;;;2.70;1.70;;;;;25.80;101059.00;;;;2079997;28;20218;-55
2022/07/15 00:01:33;;;;;;;2.30;1.47;;;;;25.80;101064.00;;;;2079997;28;20237;-54
2022/07/15 00:02:34;;;;;;;2.47;1.63;;;;;25.80;101062.00;;;;2076952;28;20597;-55
2022/07/15 00:03:34;;;;;;;3.00;1.60;;;;;25.70;101066.00;;;;2080845;28;20456;-55
2022/07/15 00:04:34;;;;;;;1.93;1.20;;;;;25.70;101062.00;;;;2080745;28;20217;-54
2022/07/15 00:05:35;;;;;;;2.10;1.40;;;;;25.70;101068.00;;;;2073089;28;20221;-54
2022/07/15 00:06:35;;;;;;;2.63;1.27;;;;;25.70;101063.00;;;;2076707;28;20252;-55
2022/07/15 00:07:36;;;;;;;3.43;1.60;;;;;25.70;101070.00;;;;2074327;28;20242;-54
2022/07/15 00:08:36;;;;;;;2.23;1.30;;;;;25.70;101066.00;;;;2072636;28;20739;-54
2022/07/15 00:10:55;;;;;;;1.97;1.30;;;;;25.70;101067.00;;;;2070218;28;20225;-54
2022/07/15 00:11:58;;;;;;;3.03;1.40;;;;;25.70;100950.00;;;;2071832;28;20465;-55
2022/07/15 00:12:59;;;;;;;2.15;1.02;;;;;25.70;101061.00;;;;2072175;28;20852;-54
2022/07/15 00:13:59;;;;;;;2.30;1.20;;;;;25.70;101066.00;;;;2075404;28;20573;-56
2022/07/15 00:15:00;;;;;;;2.63;1.10;;;;;25.70;101065.00;;;;2080207;28;20483;-55
2022/07/15 00:16:00;;;;;;;3.07;1.30;;;;;25.70;101066.00;;;;2080409;28;20213;-54
2022/07/15 00:17:01;;;;;;;1.90;1.10;;;;;25.70;101072.00;;;;2080307;28;20214;-55
2022/07/15 00:18:03;;;;;;;2.97;1.50;;;;;25.70;101066.00;;;;2079747;28;20283;-54
2022/07/15 00:19:03;;;;;;;1.67;1.40;;;;;25.70;101060.00;;;;2080275;28;20452;-54
2022/07/15 00:20:05;;;;;;;2.47;1.50;;;;;25.70;101058.00;;;;2080381;28;21220;-55
2022/07/15 00:21:05;;;;;;;3.07;1.53;;;;;25.70;101044.00;;;;2079893;28;20283;-55
2022/07/15 00:22:06;;;;;;;3.17;1.40;;;;;25.70;101050.00;;;;2080050;28;20499;-53
2022/07/15 00:23:06;;;;;;;2.30;1.17;;;;;25.70;101058.00;;;;2079941;28;20248;-54
2022/07/15 00:24:06;;;;;;;2.00;1.20;;;;;25.70;101056.00;;;;2078724;28;20315;-54
2022/07/15 00:25:07;;;;;;;2.13;1.10;;;;;25.70;101063.00;;;;2079088;28;20221;-54
2022/07/15 00:26:08;;;;;;;3.50;1.57;;;;;25.70;101064.00;;;;2079856;28;20217;-54
2022/07/15 00:27:08;;;;;;;2.87;1.43;;;;;25.70;101065.00;;;;2079962;28;20275;-55
2022/07/15 00:28:08;;;;;;;4.00;1.80;;;;;25.70;101059.00;;;;2078990;28;20225;-54
2022/07/15 00:29:09;;;;;;;2.43;1.50;;;;;25.70;101062.00;;;;2078599;28;20279;-54
2022/07/15 00:30:09;;;;;;;2.20;1.33;;;;;25.70;101073.00;;;;2071708;28;20234;-55
2022/07/15 00:31:09;;;;;;;1.90;1.40;;;;;25.70;101060.00;;;;2071319;28;20216;-58
2022/07/15 00:32:10;;;;;;;4.07;1.70;;;;;25.70;101063.00;;;;2071561;28;20653;-56
2022/07/15 00:33:10;;;;;;;2.50;1.23;;;;;25.70;101064.00;;;;2071656;28;20285;-57
2022/07/15 00:34:11;;;;;;;2.63;1.63;;;;;25.70;101059.00;;;;2077376;28;20223;-54
2022/07/15 00:35:11;;;;;;;2.90;1.80;;;;;25.70;101063.00;;;;2079765;28;20213;-55
2022/07/15 00:36:11;;;;;;;2.40;1.33;;;;;25.70;101059.00;;;;2079565;28;20213;-55
2022/07/15 00:37:12;;;;;;;3.17;1.47;;;;;25.70;101062.00;;;;2071507;28;20241;-55
2022/07/15 00:38:12;;;;;;;3.07;1.50;;;;;25.70;101058.00;;;;2070774;28;20218;-54
2022/07/15 00:39:12;;;;;;;1.90;1.40;;;;;25.70;101061.00;;;;2071674;28;20214;-54
2022/07/15 00:40:13;;;;;;;2.80;1.43;;;;;25.70;101052.00;;;;2071669;28;20217;-55
2022/07/15 00:41:13;;;;;;;2.47;1.67;;;;;25.70;101070.00;;;;2071248;28;20217;-54
2022/07/15 00:42:43;;;;;;;3.10;1.40;;;;;25.70;101082.00;;;;2071005;28;20214;-54
2022/07/15 00:43:34;;;;;;;2.53;1.48;;;;;25.70;101066.00;;;;2071463;28;20898;-54
2022/07/15 00:44:34;;;;;;;1.93;1.30;;;;;25.70;101068.00;;;;2071396;28;20218;-54
2022/07/15 00:45:34;;;;;;;2.70;1.30;;;;;25.70;101060.00;;;;2074779;28;20213;-54
2022/07/15 00:46:35;;;;;;;2.00;1.43;;;;;25.70;101061.00;;;;2079799;28;21137;-54
2022/07/15 00:47:35;;;;;;;1.80;1.23;;;;;25.70;101064.00;;;;2078777;28;20704;-54
2022/07/15 00:48:36;;;;;;;3.17;1.57;;;;;25.70;101060.00;;;;2078305;28;20217;-54
2022/07/15 00:49:36;;;;;;;3.07;1.27;;;;;25.70;101060.00;;;;2079341;28;20218;-55
2022/07/15 00:50:37;;;;;;;3.83;1.40;;;;;25.70;101066.00;;;;2079734;28;20795;-54
2022/07/15 00:51:41;;;;;;;3.57;1.50;;;;;25.70;101064.00;;;;2078599;28;20689;-54
2022/07/15 00:52:43;;;;;;;2.33;1.47;;;;;25.70;101066.00;;;;2070379;28;20225;-54
2022/07/15 00:53:43;;;;;;;2.10;1.30;;;;;25.70;101067.00;;;;2070641;28;20452;-55
2022/07/15 00:54:43;;;;;;;1.80;1.40;;;;;25.60;101078.00;;;;2070676;28;20452;-55
2022/07/15 00:55:45;;;;;;;2.03;1.27;;;;;25.60;101066.00;;;;2062541;28;20207;-55
2022/07/15 00:56:52;;;;;;;2.33;1.55;;;;;25.60;101060.00;;;;2070245;28;20248;-55
2022/07/15 00:57:55;;;;;;;2.50;1.53;;;;;25.60;101057.00;;;;2078853;28;20225;-55
2022/07/15 00:58:56;;;;;;;2.70;1.47;;;;;25.60;101033.00;;;;2079081;28;20496;-54
2022/07/15 00:59:56;;;;;;;3.77;1.53;;;;;25.70;101064.00;;;;2070431;28;20449;-54
2022/07/15 01:00:57;;;;;;;2.80;1.43;;;;;25.70;101062.00;;;;2070486;28;20272;-54
2022/07/15 01:01:57;;;;;;;2.63;1.40;;;;;25.70;101065.00;;;;2077710;28;20350;-54
2022/07/15 01:02:58;;;;;;;2.43;1.60;;;;;25.60;101064.00;;;;2078813;28;20213;-55
2022/07/15 01:03:59;;;;;;;3.03;1.23;;;;;25.60;101068.00;;;;2078954;28;20749;-54
2022/07/15 01:05:00;;;;;;;3.30;1.70;;;;;25.60;101065.00;;;;2078647;28;20451;-54
2022/07/15 01:06:01;;;;;;;3.07;1.20;;;;;25.60;101061.00;;;;2078537;28;20205;-54
2022/07/15 01:07:01;;;;;;;2.30;1.53;;;;;25.60;101068.00;;;;2070510;28;20540;-54
2022/07/15 01:08:01;;;;;;;1.77;1.30;;;;;25.60;101065.00;;;;2077878;28;20659;-54
2022/07/15 01:09:02;;;;;;;3.23;1.40;;;;;25.60;101061.00;;;;2078832;28;20549;-54
2022/07/15 01:10:02;;;;;;;2.27;1.40;;;;;25.60;101060.00;;;;2079262;28;20314;-54
2022/07/15 01:11:02;;;;;;;2.37;1.33;;;;;25.60;101066.00;;;;2079053;28;20221;-54
2022/07/15 01:12:03;;;;;;;3.10;1.50;;;;;25.60;101058.00;;;;2078873;28;20290;-54
2022/07/15 01:13:04;;;;;;;2.10;1.47;;;;;25.60;101069.00;;;;2079107;28;20249;-54
2022/07/15 01:14:04;;;;;;;2.40;1.40;;;;;25.60;101065.00;;;;2079485;28;20225;-54
2022/07/15 01:15:05;;;;;;;4.50;1.73;;;;;25.60;101066.00;;;;2078095;28;20221;-54
2022/07/15 01:16:05;;;;;;;1.90;1.20;;;;;25.60;101063.00;;;;2076695;28;20218;-54
2022/07/15 01:17:10;;;;;;;3.17;1.60;;;;;25.60;101061.00;;;;2078612;28;20221;-54
2022/07/15 01:18:10;;;;;;;3.93;1.60;;;;;25.60;101078.00;;;;2074073;28;20254;-54
2022/07/15 01:19:10;;;;;;;2.27;1.57;;;;;25.60;101071.00;;;;2071325;28;20922;-54
2022/07/15 01:20:12;;;;;;;2.70;1.37;;;;;25.60;101065.00;;;;2073895;28;21505;-54
2022/07/15 01:21:12;;;;;;;2.60;1.50;;;;;25.60;101071.00;;;;2079563;28;20819;-54
2022/07/15 01:22:12;;;;;;;1.77;1.13;;;;;25.60;101069.00;;;;2079204;28;20514;-54
2022/07/15 01:23:13;;;;;;;3.30;1.60;;;;;25.60;101072.00;;;;2079477;28;20221;-54
2022/07/15 01:24:13;;;;;;;2.10;1.37;;;;;25.60;101061.00;;;;2079153;28;20221;-54
2022/07/15 01:25:14;;;;;;;2.60;1.40;;;;;25.60;101066.00;;;;2079186;28;20221;-54
2022/07/15 01:26:14;;;;;;;2.27;1.50;;;;;25.60;101066.00;;;;2078677;28;20739;-54
2022/07/15 01:27:15;;;;;;;4.80;1.70;;;;;25.50;101076.00;;;;2072635;28;20218;-54
2022/07/15 01:28:15;;;;;;;6.03;1.60;;;;;25.60;101064.00;;;;2079200;28;20231;-54
2022/07/15 01:29:15;;;;;;;4.20;1.50;;;;;25.60;101072.00;;;;2079348;28;20227;-54
2022/07/15 01:30:16;;;;;;;4.27;1.60;;;;;25.60;101075.00;;;;2078644;28;20394;-54
2022/07/15 01:31:16;;;;;;;2.63;1.70;;;;;25.60;101067.00;;;;2078583;28;20296;-54
2022/07/15 01:32:17;;;;;;;1.67;1.30;;;;;25.60;101078.00;;;;2079063;28;20351;-54
2022/07/15 01:33:17;;;;;;;2.77;1.37;;;;;25.60;101067.00;;;;2079111;28;20228;-54
2022/07/15 01:34:18;;;;;;;2.73;1.40;;;;;25.60;101072.00;;;;2079328;28;20218;-54
2022/07/15 01:35:18;;;;;;;3.10;1.40;;;;;25.60;101063.00;;;;2079326;28;20225;-54
2022/07/15 01:36:18;;;;;;;2.93;1.20;;;;;25.60;101070.00;;;;2079231;28;20240;-54
2022/07/15 01:37:19;;;;;;;3.57;1.30;;;;;25.50;101090.00;;;;2078843;28;20222;-54
2022/07/15 01:38:19;;;;;;;3.13;1.60;;;;;25.60;101067.00;;;;2078726;28;20220;-59
2022/07/15 01:39:19;;;;;;;1.90;1.20;;;;;25.60;101060.00;;;;2067381;28;20206;-55
2022/07/15 01:40:19;;;;;;;2.10;1.47;;;;;25.50;101075.00;;;;2071237;28;20206;-56
2022/07/15 01:41:22;;;;;;;1.73;1.30;;;;;25.50;101071.00;;;;2074827;28;20271;-55
2022/07/15 01:42:22;;;;;;;1.60;1.30;;;;;25.50;101072.00;;;;2077856;28;20209;-55
2022/07/15 01:43:23;;;;;;;2.47;1.40;;;;;25.50;101075.00;;;;2078500;28;20452;-55
2022/07/15 01:44:23;;;;;;;1.93;1.00;;;;;25.60;101072.00;;;;2077054;28;20243;-55
2022/07/15 01:45:23;;;;;;;2.77;1.30;;;;;25.50;101074.00;;;;2070572;28;20269;-55
2022/07/15 01:46:24;;;;;;;1.87;1.27;;;;;25.50;101078.00;;;;2078225;28;20221;-55
2022/07/15 01:47:24;;;;;;;2.67;1.30;;;;;25.50;101072.00;;;;2078175;28;20214;-56
2022/07/15 01:49:43;;;;;;;2.70;1.30;;;;;25.50;101090.00;;;;2072438;28;20218;-55
2022/07/15 01:50:44;;;;;;;2.57;1.63;;;;;25.50;101078.00;;;;2079313;28;21140;-55
2022/07/15 01:51:44;;;;;;;3.10;1.37;;;;;25.60;101100.00;;;;2072548;28;20704;-55
2022/07/15 01:52:44;;;;;;;2.07;1.20;;;;;25.60;101083.00;;;;2070638;28;21020;-54
2022/07/15 01:53:45;;;;;;;3.87;1.30;;;;;25.60;101083.00;;;;2070189;28;20686;-55
2022/07/15 01:54:45;;;;;;;2.27;1.03;;;;;25.50;101075.00;;;;2071033;28;20735;-55
2022/07/15 01:55:45;;;;;;;2.00;1.20;;;;;25.60;101079.00;;;;2071225;28;20309;-56
2022/07/15 01:56:46;;;;;;;2.87;1.60;;;;;25.50;101078.00;;;;2070825;28;20237;-55
2022/07/15 01:57:46;;;;;;;2.20;1.20;;;;;25.50;101079.00;;;;2070186;28;20246;-55
2022/07/15 01:58:46;;;;;;;2.63;1.40;;;;;25.50;101075.00;;;;2071145;28;20705;-55
2022/07/15 01:59:47;;;;;;;2.47;1.30;;;;;25.50;101086.00;;;;2071323;28;20226;-55
2022/07/15 02:00:47;;;;;;;3.50;1.40;;;;;25.50;101083.00;;;;2070871;28;20305;-55
2022/07/15 02:01:47;;;;;;;1.90;1.07;;;;;25.50;101080.00;;;;2070936;28;20392;-56
2022/07/15 02:02:48;;;;;;;2.40;1.37;;;;;25.50;101080.00;;;;2070779;28;20229;-55
2022/07/15 02:03:48;;;;;;;2.03;0.93;;;;;25.50;101084.00;;;;2071289;28;20222;-54
2022/07/15 02:04:48;;;;;;;3.60;1.60;;;;;25.50;101076.00;;;;2071106;28;20222;-55
2022/07/15 02:05:49;;;;;;;2.43;1.30;;;;;25.50;101079.00;;;;2070938;28;20713;-55
2022/07/15 02:06:49;;;;;;;1.47;1.07;;;;;25.50;101083.00;;;;2071041;28;20218;-55
2022/07/15 02:07:50;;;;;;;3.00;1.13;;;;;25.50;101085.00;;;;2069874;28;20280;-55
2022/07/15 02:08:50;;;;;;;2.00;1.17;;;;;25.50;101083.00;;;;2071001;28;20222;-55
2022/07/15 02:09:50;;;;;;;1.97;1.20;;;;;25.50;101124.00;;;;2071124;28;20767;-54
2022/07/15 02:10:51;;;;;;;3.20;1.60;;;;;25.50;101081.00;;;;2074815;28;20686;-53
2022/07/15 02:11:51;;;;;;;2.03;1.27;;;;;25.50;101078.00;;;;2071104;28;20675;-53
2022/07/15 02:12:51;;;;;;;2.20;0.90;;;;;25.50;101080.00;;;;2070967;28;20230;-54
2022/07/15 02:13:53;;;;;;;2.77;1.40;;;;;25.50;101094.00;;;;2074593;28;20213;-53
2022/07/15 02:14:54;;;;;;;2.50;1.45;;;;;25.50;101080.00;;;;2078337;28;20253;-54
2022/07/15 02:15:54;;;;;;;2.13;1.30;;;;;25.50;101075.00;;;;2077789;28;20331;-58
2022/07/15 02:16:55;;;;;;;2.00;1.10;;;;;25.50;101075.00;;;;2079196;28;20791;-54
2022/07/15 02:17:55;;;;;;;2.47;1.47;;;;;25.50;101079.00;;;;2077715;28;20605;-53
2022/07/15 02:18:56;;;;;;;2.83;1.37;;;;;25.50;101078.00;;;;2074924;28;20492;-54
2022/07/15 02:19:56;;;;;;;2.73;1.43;;;;;25.50;101075.00;;;;2074978;28;20217;-54
2022/07/15 02:20:56;;;;;;;2.70;1.27;;;;;25.50;101075.00;;;;2073117;28;20214;-56
2022/07/15 02:21:57;;;;;;;4.13;1.50;;;;;25.50;101076.00;;;;2070754;28;20224;-55
2022/07/15 02:22:58;;;;;;;3.33;1.27;;;;;25.50;101076.00;;;;2078570;28;20213;-56
2022/07/15 02:23:58;;;;;;;1.80;1.20;;;;;25.50;101068.00;;;;2077241;28;20213;-55
2022/07/15 02:24:58;;;;;;;2.80;1.30;;;;;25.50;101086.00;;;;2070782;28;20206;-55
2022/07/15 02:26:00;;;;;;;2.10;1.30;;;;;25.50;101079.00;;;;2074149;28;20209;-55
2022/07/15 02:27:00;;;;;;;3.28;1.50;;;;;25.50;101078.00;;;;2070996;28;20301;-55
2022/07/15 02:28:03;;;;;;;2.20;1.43;;;;;25.50;101076.00;;;;2069764;28;20210;-55
2022/07/15 02:29:03;;;;;;;2.30;1.13;;;;;25.50;101076.00;;;;2068862;28;20709;-55
2022/07/15 02:30:04;;;;;;;2.40;1.20;;;;;25.50;101075.00;;;;2070293;28;20523;-55
2022/07/15 02:31:05;;;;;;;2.70;1.17;;;;;25.50;101080.00;;;;2070841;28;20218;-55
2022/07/15 02:32:05;;;;;;;2.67;1.60;;;;;25.50;101074.00;;;;2070762;28;21190;-55
2022/07/15 02:33:06;;;;;;;4.27;1.47;;;;;25.40;101078.00;;;;2073183;28;20221;-55
2022/07/15 02:34:06;;;;;;;3.40;1.10;;;;;25.50;101077.00;;;;2078814;28;20213;-55
2022/07/15 02:35:08;;;;;;;2.50;1.40;;;;;25.50;101079.00;;;;2078818;28;20453;-55
2022/07/15 02:36:08;;;;;;;3.13;1.60;;;;;25.50;101078.00;;;;2078986;28;20287;-55
2022/07/15 02:37:08;;;;;;;2.50;1.40;;;;;25.50;101081.00;;;;2078031;28;20490;-55
2022/07/15 02:38:09;;;;;;;3.10;1.40;;;;;25.50;101077.00;;;;2077149;28;20256;-55
2022/07/15 02:39:09;;;;;;;2.73;1.20;;;;;25.40;101074.00;;;;2073183;28;20310;-55
2022/07/15 02:40:10;;;;;;;4.93;1.37;;;;;25.40;101076.00;;;;2079018;28;20213;-55
2022/07/15 02:41:13;;;;;;;2.70;1.30;;;;;25.50;101069.00;;;;2078846;28;20216;-55
2022/07/15 02:42:13;;;;;;;3.80;1.40;;;;;25.50;101080.00;;;;2078908;28;20467;-55
2022/07/15 02:43:14;;;;;;;2.50;1.53;;;;;25.50;101076.00;;;;2077726;28;20498;-55
2022/07/15 02:44:14;;;;;;;2.17;1.40;;;;;25.40;101076.00;;;;2077915;28;20209;-55
2022/07/15 02:45:14;;;;;;;2.30;1.20;;;;;25.40;101078.00;;;;2075173;28;20241;-55
2022/07/15 02:46:15;;;;;;;2.67;1.50;;;;;25.40;101077.00;;;;2078899;28;20731;-55
2022/07/15 02:47:17;;;;;;;3.97;1.20;;;;;25.50;101077.00;;;;2078441;28;20685;-56
2022/07/15 02:48:17;;;;;;;3.40;1.40;;;;;25.40;101075.00;;;;2077664;28;20213;-55
2022/07/15 02:49:17;;;;;;;2.10;1.37;;;;;25.40;101073.00;;;;2077992;28;20460;-55
2022/07/15 02:50:18;;;;;;;3.83;1.47;;;;;25.40;101079.00;;;;2070090;28;20220;-55
2022/07/15 02:51:18;;;;;;;3.90;1.43;;;;;25.40;101073.00;;;;2078200;28;20209;-55
2022/07/15 02:52:18;;;;;;;3.83;1.33;;;;;25.40;101074.00;;;;2077112;28;20606;-55
2022/07/15 02:53:20;;;;;;;3.10;1.63;;;;;25.40;101078.00;;;;2077126;28;21067;-55
2022/07/15 02:54:20;;;;;;;4.38;1.70;;;;;25.40;101079.00;;;;2078846;28;20692;-55
2022/07/15 02:55:20;;;;;;;2.40;1.40;;;;;25.40;101078.00;;;;2078742;28;20233;-55
2022/07/15 02:56:21;;;;;;;2.30;1.80;;;;;25.40;101085.00;;;;2079060;28;20217;-54
2022/07/15 02:57:21;;;;;;;3.00;1.67;;;;;25.40;101081.00;;;;2077937;28;20666;-55
2022/07/15 02:58:22;;;;;;;3.20;1.70;;;;;25.40;101081.00;;;;2078551;28;20287;-55
2022/07/15 02:59:22;;;;;;;4.10;1.50;;;;;25.40;101078.00;;;;2075159;28;20732;-53
2022/07/15 03:00:23;;;;;;;2.60;1.50;;;;;25.40;101082.00;;;;2066932;28;20847;-54
2022/07/15 03:01:23;;;;;;;2.63;1.60;;;;;25.40;101079.00;;;;2070458;28;20867;-54
2022/07/15 03:02:23;;;;;;;2.70;1.47;;;;;25.40;101084.00;;;;2077027;28;20237;-54
2022/07/15 03:03:23;;;;;;;4.33;1.47;;;;;25.40;101083.00;;;;2071245;28;20224;-53
2022/07/15 03:04:24;;;;;;;2.57;1.53;;;;;25.40;101092.00;;;;2070450;28;20230;-53
2022/07/15 03:05:24;;;;;;;2.83;1.30;;;;;25.40;101086.00;;;;2070350;28;20210;-53
2022/07/15 03:06:24;;;;;;;2.50;1.27;;;;;25.40;101091.00;;;;2070280;28;20213;-53
2022/07/15 03:07:25;;;;;;;3.20;1.57;;;;;25.40;101091.00;;;;2076518;28;20206;-53
2022/07/15 03:08:25;;;;;;;2.90;1.67;;;;;25.40;101095.00;;;;2074344;28;20229;-53
2022/07/15 03:09:25;;;;;;;2.33;1.30;;;;;25.40;101084.00;;;;2078223;28;20221;-54
2022/07/15 03:10:26;;;;;;;1.97;1.20;;;;;25.00;101089.00;;;;2074462;28;20225;-54
2022/07/15 03:11:26;;;;;;;3.47;1.60;;;;;25.40;101087.00;;;;2071548;28;20233;-52
2022/07/15 03:12:26;;;;;;;2.33;1.40;;;;;25.40;101101.00;;;;2074345;28;20210;-53
2022/07/15 03:13:27;;;;;;;2.70;1.20;;;;;25.40;101094.00;;;;2078012;28;20228;-53
2022/07/15 03:14:27;;;;;;;2.53;1.43;;;;;25.40;101102.00;;;;2078380;28;20233;-53
2022/07/15 03:15:27;;;;;;;6.70;1.47;;;;;25.40;101093.00;;;;2074871;28;20260;-53
2022/07/15 03:16:28;;;;;;;4.17;1.57;;;;;25.40;101099.00;;;;2075039;28;20213;-53
2022/07/15 03:17:28;;;;;;;2.63;1.67;;;;;25.40;101095.00;;;;2077743;28;20674;-54
2022/07/15 03:18:28;;;;;;;3.53;1.40;;;;;25.40;101099.00;;;;2073137;28;20296;-55
2022/07/15 03:19:29;;;;;;;3.77;1.60;;;;;25.40;101104.00;;;;2070340;28;20210;-54
2022/07/15 03:20:29;;;;;;;2.30;1.50;;;;;25.40;101102.00;;;;2070366;28;20210;-54
2022/07/15 03:21:29;;;;;;;2.00;1.40;;;;;25.40;101104.00;;;;2070379;28;20268;-54
2022/07/15 03:22:30;;;;;;;5.90;2.00;;;;;25.40;101111.00;;;;2070462;28;20222;-54
2022/07/15 03:23:30;;;;;;;2.60;1.40;;;;;25.30;101109.00;;;;2070361;28;20234;-54
2022/07/15 03:24:31;;;;;;;2.10;1.57;;;;;25.30;101116.00;;;;2070311;28;20216;-54
2022/07/15 03:25:32;;;;;;;3.05;1.60;;;;;25.30;101117.00;;;;2070504;28;20356;-54
2022/07/15 03:26:33;;;;;;;1.70;1.30;;;;;25.30;101117.00;;;;2070395;28;20674;-54
2022/07/15 03:27:33;;;;;;;3.13;1.73;;;;;25.30;101112.00;;;;2069595;28;20233;-54
2022/07/15 03:28:34;;;;;;;2.20;1.73;;;;;25.30;101117.00;;;;2070651;28;20560;-54
2022/07/15 03:29:34;;;;;;;3.50;1.77;;;;;25.30;101116.00;;;;2066735;28;20683;-54
2022/07/15 03:30:35;;;;;;;2.13;1.43;;;;;25.30;101117.00;;;;2070218;28;20837;-57
2022/07/15 03:31:36;;;;;;;2.17;1.30;;;;;25.30;101118.00;;;;2070632;28;20453;-55
2022/07/15 03:32:36;;;;;;;2.13;1.50;;;;;25.30;101118.00;;;;2070338;28;20222;-54
2022/07/15 03:33:36;;;;;;;2.60;1.60;;;;;25.30;101123.00;;;;2070596;28;20216;-55
2022/07/15 03:34:37;;;;;;;2.67;1.40;;;;;25.30;101110.00;;;;2070451;28;20436;-54
2022/07/15 03:35:38;;;;;;;2.57;1.83;;;;;25.30;101125.00;;;;2068840;28;20583;-54
2022/07/15 03:36:38;;;;;;;2.80;1.47;;;;;25.30;101123.00;;;;2069580;28;20584;-54
2022/07/15 03:37:39;;;;;;;2.60;1.33;;;;;25.30;101122.00;;;;2068912;28;20214;-54
2022/07/15 03:38:39;;;;;;;3.17;1.60;;;;;25.30;101121.00;;;;2070649;28;20286;-54
2022/07/15 03:39:39;;;;;;;2.40;1.60;;;;;25.30;101123.00;;;;2072438;28;20718;-54
2022/07/15 03:40:40;;;;;;;1.97;1.23;;;;;25.30;101126.00;;;;2075727;28;20742;-54
2022/07/15 03:41:40;;;;;;;3.33;1.73;;;;;25.30;101117.00;;;;2069529;28;20217;-54
2022/07/15 03:42:40;;;;;;;2.30;1.57;;;;;25.30;101121.00;;;;2070477;28;20206;-54
2022/07/15 03:43:41;;;;;;;2.90;1.50;;;;;25.30;101124.00;;;;2070613;28;20210;-54
2022/07/15 03:44:41;;;;;;;2.47;1.73;;;;;25.30;101131.00;;;;2070309;28;20788;-54
2022/07/15 03:45:41;;;;;;;2.43;1.40;;;;;25.20;101130.00;;;;2077548;28;20220;-54
2022/07/15 03:46:42;;;;;;;3.30;1.87;;;;;25.20;101131.00;;;;2078479;28;20216;-54
2022/07/15 03:47:43;;;;;;;2.70;1.40;;;;;25.30;101128.00;;;;2077611;28;20229;-54
2022/07/15 03:48:43;;;;;;;1.87;1.57;;;;;25.30;101126.00;;;;2078616;28;20452;-54
2022/07/15 03:49:43;;;;;;;3.00;1.40;;;;;25.30;101136.00;;;;2078520;28;20225;-54
2022/07/15 03:50:44;;;;;;;3.60;2.00;;;;;25.30;101133.00;;;;2078488;28;20328;-54
2022/07/15 03:51:44;;;;;;;1.93;1.50;;;;;25.30;101128.00;;;;2077805;28;20241;-54
2022/07/15 03:52:44;;;;;;;2.63;1.60;;;;;25.30;101132.00;;;;2077943;28;20221;-55
2022/07/15 03:53:45;;;;;;;2.50;1.67;;;;;25.30;101108.00;;;;2078690;28;20221;-54
2022/07/15 03:54:46;;;;;;;3.53;2.20;;;;;25.30;101130.00;;;;2069524;28;20288;-55
2022/07/15 03:55:46;;;;;;;2.77;1.33;;;;;25.30;101128.00;;;;2069824;28;20268;-54
2022/07/15 03:56:47;;;;;;;1.90;1.43;;;;;25.30;101145.00;;;;2076409;28;20213;-54
2022/07/15 03:57:47;;;;;;;2.83;1.63;;;;;25.20;101145.00;;;;2069536;28;20218;-54
2022/07/15 03:58:48;;;;;;;3.00;1.80;;;;;25.20;101135.00;;;;2070480;28;20533;-54
2022/07/15 03:59:48;;;;;;;3.27;1.80;;;;;25.20;101135.00;;;;2070197;28;20240;-54
2022/07/15 04:00:48;;;;;;;3.73;2.17;;;;;25.20;101142.00;;;;2070324;28;20221;-55
2022/07/15 04:01:49;;;;;;;3.00;1.50;;;;;25.20;101145.00;;;;2070131;28;20242;-55
2022/07/15 04:02:49;;;;;;;3.60;1.70;;;;;25.20;101148.00;;;;2069697;28;20281;-54
2022/07/15 04:03:50;;;;;;;3.93;1.80;;;;;25.20;101146.00;;;;2069653;28;20237;-54
2022/07/15 04:04:50;;;;;;;3.00;1.30;;;;;25.20;101146.00;;;;2070253;28;20683;-55
2022/07/15 04:05:51;;;;;;;2.70;1.70;;;;;25.20;101149.00;;;;2070927;28;20206;-55
2022/07/15 04:06:51;;;;;;;2.87;1.37;;;;;25.20;101153.00;;;;2074363;28;20240;-54
2022/07/15 04:07:51;;;;;;;2.70;1.40;;;;;25.20;101150.00;;;;2078220;28;20209;-54
2022/07/15 04:08:52;;;;;;;2.60;1.60;;;;;25.20;101158.00;;;;2079381;28;20217;-55
2022/07/15 04:09:52;;;;;;;2.27;1.50;;;;;25.20;101154.00;;;;2078804;28;20267;-54
2022/07/15 04:10:53;;;;;;;3.83;1.60;;;;;25.20;101158.00;;;;2079059;28;20213;-54
2022/07/15 04:11:53;;;;;;;2.47;1.70;;;;;25.20;101152.00;;;;2078240;28;20218;-55
2022/07/15 04:12:53;;;;;;;4.47;1.87;;;;;25.20;101156.00;;;;2078419;28;20233;-54
2022/07/15 04:13:54;;;;;;;2.93;1.50;;;;;25.20;101144.00;;;;2078994;28;20237;-54
2022/07/15 04:14:54;;;;;;;2.83;1.50;;;;;25.20;101157.00;;;;2078716;28;20609;-55
2022/07/15 04:15:54;;;;;;;2.93;1.50;;;;;25.20;101155.00;;;;2078663;28;20224;-54
2022/07/15 04:16:55;;;;;;;3.27;1.40;;;;;25.20;101161.00;;;;2079925;28;20213;-55
2022/07/15 04:17:58;;;;;;;3.93;1.70;;;;;25.20;101154.00;;;;2079409;28;20217;-54
2022/07/15 04:18:58;;;;;;;4.13;1.73;;;;;25.20;101159.00;;;;2080605;28;20973;-54
2022/07/15 04:19:58;;;;;;;3.20;2.03;;;;;25.20;101158.00;;;;2080731;28;20213;-55
2022/07/15 04:20:59;;;;;;;2.67;1.50;;;;;25.20;101165.00;;;;2080696;28;20251;-54
2022/07/15 04:21:59;;;;;;;3.63;1.63;;;;;25.20;101159.00;;;;2080447;28;20218;-55
2022/07/15 04:23:00;;;;;;;2.40;1.53;;;;;25.20;101168.00;;;;2079560;28;20452;-54
2022/07/15 04:24:00;;;;;;;1.53;1.23;;;;;25.20;101166.00;;;;2079154;28;20218;-54
2022/07/15 04:25:01;;;;;;;2.50;1.43;;;;;25.20;101168.00;;;;2079448;28;20352;-55
2022/07/15 04:26:01;;;;;;;3.23;1.80;;;;;25.20;101161.00;;;;2075075;28;20579;-54
2022/07/15 04:27:01;;;;;;;3.10;1.90;;;;;25.20;101176.00;;;;2071575;28;20867;-56
2022/07/15 04:28:02;;;;;;;3.43;1.70;;;;;25.20;101165.00;;;;2071580;28;20253;-54
2022/07/15 04:29:02;;;;;;;3.10;1.53;;;;;25.20;101174.00;;;;2072217;28;20218;-55
2022/07/15 04:30:05;;;;;;;4.00;1.50;;;;;25.20;101165.00;;;;2072310;28;20272;-54
2022/07/15 04:31:05;;;;;;;4.30;1.60;;;;;25.20;101169.00;;;;2072154;28;20218;-54
2022/07/15 04:32:05;;;;;;;3.33;1.57;;;;;25.20;101171.00;;;;2072256;28;21112;-56
2022/07/15 04:33:06;;;;;;;4.03;2.03;;;;;25.20;101166.00;;;;2071701;28;20626;-55
2022/07/15 04:34:06;;;;;;;2.13;1.30;;;;;25.20;101172.00;;;;2071345;28;20265;-54
2022/07/15 04:35:07;;;;;;;3.00;1.33;;;;;25.20;101172.00;;;;2078335;28;20229;-54
2022/07/15 04:36:07;;;;;;;2.47;1.50;;;;;25.20;101170.00;;;;2080277;28;20228;-55
2022/07/15 04:37:07;;;;;;;2.87;1.80;;;;;25.20;101178.00;;;;2080504;28;20224;-54
2022/07/15 04:38:08;;;;;;;4.50;1.90;;;;;25.20;101177.00;;;;2079513;28;20213;-54
2022/07/15 04:39:08;;;;;;;2.37;1.53;;;;;25.20;101175.00;;;;2080287;28;20209;-55
2022/07/15 04:40:12;;;;;;;3.03;1.43;;;;;25.20;101174.00;;;;2080187;28;20224;-54
2022/07/15 04:41:12;;;;;;;1.65;1.30;;;;;25.20;101175.00;;;;2080457;28;20227;-54
2022/07/15 04:42:13;;;;;;;3.23;1.60;;;;;25.20;101174.00;;;;2080633;28;20240;-55
2022/07/15 04:43:13;;;;;;;2.83;1.60;;;;;25.20;101179.00;;;;2080370;28;20209;-54
2022/07/15 04:44:13;;;;;;;2.77;1.60;;;;;25.20;101187.00;;;;2080505;28;20210;-55
2022/07/15 04:45:14;;;;;;;2.60;1.50;;;;;25.20;101196.00;;;;2075876;28;20245;-55
2022/07/15 04:46:14;;;;;;;3.47;1.60;;;;;25.20;101201.00;;;;2072007;28;20214;-54
2022/07/15 04:47:15;;;;;;;4.33;2.10;;;;;25.20;101192.00;;;;2071485;28;20698;-55
2022/07/15 04:50:53;;;;;;;2.65;1.42;;;;;25.20;101192.00;;;;2072197;28;20621;-55
2022/07/15 04:51:53;;;;;;;2.80;1.57;;;;;25.20;101197.00;;;;2072150;28;20222;-56
2022/07/15 04:52:53;;;;;;;2.70;1.63;;;;;25.20;101198.00;;;;2072287;28;20256;-55
2022/07/15 04:53:54;;;;;;;3.07;1.50;;;;;25.20;101198.00;;;;2071797;28;20222;-54
2022/07/15 04:54:54;;;;;;;2.63;1.77;;;;;25.20;101206.00;;;;2074578;28;20309;-54
2022/07/15 04:55:55;;;;;;;2.90;1.67;;;;;25.20;101199.00;;;;2080021;28;20210;-54
2022/07/15 04:56:55;;;;;;;2.50;1.40;;;;;25.20;101193.00;;;;2072524;28;20218;-54
2022/07/15 04:57:55;;;;;;;3.77;1.53;;;;;25.20;101175.00;;;;2070848;28;20592;-55
2022/07/15 04:58:56;;;;;;;2.63;1.50;;;;;25.20;101197.00;;;;2071695;28;20669;-55
2022/07/15 04:59:56;;;;;;;2.63;1.70;;;;;25.20;101197.00;;;;2063399;28;20218;-54
2022/07/15 05:00:56;;;;;;;2.23;1.43;;;;;25.20;101201.00;;;;2071593;28;20365;-54
2022/07/15 05:01:57;;;;;;;1.93;1.30;;;;;25.20;101190.00;;;;2072135;28;20242;-54
2022/07/15 05:02:57;;;;;;;4.63;2.17;;;;;25.20;101187.00;;;;2071891;28;20222;-55
2022/07/15 05:03:57;;;;;;;1.97;1.63;;;;;25.20;101193.00;;;;2071876;28;20229;-53
2022/07/15 05:04:58;;;;;;;2.70;1.53;;;;;25.20;101187.00;;;;2071913;28;20260;-54